createdAt,value
2018-02-04T00:00:40.960Z,0.00
2018-02-04T00:01:40.947Z,0.00
2018-02-04T00:02:40.946Z,0.00
2018-02-04T00:03:40.943Z,0.00
2018-02-04T00:04:40.927Z,0.00
2018-02-04T00:05:40.933Z,0.00
2018-02-04T00:06:40.918Z,0.00
2018-02-04T00:07:41.802Z,0.00
2018-02-04T00:08:40.903Z,0.00
2018-02-04T00:09:41.873Z,0.00
2018-02-04T00:10:40.893Z,0.00
2018-02-04T00:11:40.873Z,0.00
2018-02-04T00:12:40.884Z,0.00
2018-02-04T00:13:40.859Z,0.00
2018-02-04T00:14:40.870Z,0.00
2018-02-04T00:15:40.852Z,0.00
2018-02-04T00:16:40.916Z,0.00
2018-02-04T00:17:40.832Z,0.00
2018-02-04T00:18:40.822Z,0.00
2018-02-04T00:19:40.911Z,0.00
2018-02-04T00:20:40.826Z,0.00
2018-02-04T00:21:40.851Z,0.00
2018-02-04T00:22:40.792Z,0.00
2018-02-04T00:23:40.860Z,0.00
2018-02-04T00:24:40.779Z,0.00
2018-02-04T00:25:40.793Z,0.00
2018-02-04T00:26:40.786Z,0.00
2018-02-04T00:27:40.755Z,0.00
2018-02-04T00:28:40.816Z,0.00
2018-02-04T00:29:40.817Z,0.00
2018-02-04T00:30:40.732Z,0.00
2018-02-04T00:31:40.950Z,0.00
2018-02-04T00:32:40.737Z,0.00
2018-02-04T00:33:40.765Z,0.00
2018-02-04T00:34:40.906Z,0.00
2018-02-04T00:35:40.696Z,0.00
2018-02-04T00:36:40.688Z,0.00
2018-02-04T00:37:41.378Z,0.00
2018-02-04T00:38:40.674Z,0.00
2018-02-04T00:39:40.670Z,0.00
2018-02-04T00:40:40.925Z,0.00
2018-02-04T00:41:40.674Z,0.00
2018-02-04T00:42:40.688Z,0.00
2018-02-04T00:43:40.649Z,0.00
2018-02-04T00:44:40.702Z,0.00
2018-02-04T00:45:40.623Z,0.00
2018-02-04T00:46:40.709Z,0.00
2018-02-04T00:47:40.728Z,0.00
2018-02-04T00:48:41.362Z,0.00
2018-02-04T00:49:41.337Z,0.00
2018-02-04T00:50:40.587Z,0.00
2018-02-04T00:51:41.367Z,0.00
2018-02-04T00:52:40.918Z,0.00
2018-02-04T00:53:40.578Z,0.00
2018-02-04T00:54:40.605Z,0.00
2018-02-04T00:55:40.550Z,0.00
2018-02-04T00:56:40.540Z,0.00
2018-02-04T00:57:40.533Z,0.00
2018-02-04T00:58:40.530Z,0.00
2018-02-04T00:59:40.518Z,0.00
2018-02-04T01:00:40.510Z,0.00
2018-02-04T01:01:40.503Z,0.00
2018-02-04T01:02:40.505Z,0.00
2018-02-04T01:03:40.490Z,0.00
2018-02-04T01:04:40.482Z,0.00
2018-02-04T01:05:40.473Z,0.00
2018-02-04T01:06:40.514Z,0.00
2018-02-04T01:07:40.460Z,0.00
2018-02-04T01:08:40.451Z,0.00
2018-02-04T01:09:40.468Z,0.00
2018-02-04T01:10:40.435Z,0.00
2018-02-04T01:11:40.430Z,0.00
2018-02-04T01:12:40.427Z,0.00
2018-02-04T01:13:40.419Z,0.00
2018-02-04T01:14:40.411Z,0.00
2018-02-04T01:15:40.398Z,0.00
2018-02-04T01:16:40.393Z,0.00
2018-02-04T01:17:40.390Z,0.00
2018-02-04T01:18:41.530Z,0.00
2018-02-04T01:19:40.373Z,0.00
2018-02-04T01:20:40.364Z,0.00
2018-02-04T01:21:40.354Z,0.00
2018-02-04T01:22:40.354Z,0.00
2018-02-04T01:23:40.782Z,0.00
2018-02-04T01:24:40.336Z,0.00
2018-02-04T01:25:40.325Z,0.00
2018-02-04T01:26:40.317Z,0.00
2018-02-04T01:27:40.309Z,0.00
2018-02-04T01:28:40.302Z,0.00
2018-02-04T01:29:40.328Z,0.00
2018-02-04T01:30:40.291Z,0.00
2018-02-04T01:31:40.292Z,0.00
2018-02-04T01:32:40.273Z,0.00
2018-02-04T01:33:40.266Z,0.00
2018-02-04T01:34:40.255Z,0.00
2018-02-04T01:35:40.250Z,0.00
2018-02-04T01:36:40.244Z,0.00
2018-02-04T01:37:40.274Z,0.00
2018-02-04T01:38:40.236Z,0.00
2018-02-04T01:39:40.224Z,0.00
2018-02-04T01:40:40.244Z,0.00
2018-02-04T01:41:40.203Z,0.00
2018-02-04T01:42:40.201Z,0.00
2018-02-04T01:43:40.191Z,0.00
2018-02-04T01:44:40.186Z,0.00
2018-02-04T01:45:40.280Z,0.00
2018-02-04T01:46:40.173Z,0.00
2018-02-04T01:47:40.165Z,0.00
2018-02-04T01:48:40.172Z,0.00
2018-02-04T01:49:40.170Z,0.00
2018-02-04T01:50:40.136Z,0.00
2018-02-04T01:51:40.133Z,0.00
2018-02-04T01:52:40.122Z,0.00
2018-02-04T01:53:40.113Z,0.00
2018-02-04T01:54:40.107Z,0.00
2018-02-04T01:55:40.101Z,0.00
2018-02-04T01:56:40.095Z,0.00
2018-02-04T01:57:40.092Z,0.00
2018-02-04T01:58:40.078Z,0.00
2018-02-04T01:59:40.086Z,0.00
2018-02-04T02:00:40.092Z,0.00
2018-02-04T02:01:40.055Z,0.00
2018-02-04T02:02:40.095Z,0.00
2018-02-04T02:03:40.045Z,0.00
2018-02-04T02:04:40.048Z,0.00
2018-02-04T02:05:40.049Z,0.00
2018-02-04T02:06:40.858Z,0.00
2018-02-04T02:07:40.091Z,0.00
2018-02-04T02:08:41.313Z,0.00
2018-02-04T02:09:43.317Z,0.00
2018-02-04T02:10:41.802Z,0.00
2018-02-04T02:11:40.061Z,0.00
2018-02-04T02:12:41.776Z,0.00
2018-02-04T02:13:42.802Z,0.00
2018-02-04T02:14:41.302Z,0.00
2018-02-04T02:15:48.803Z,0.00
2018-02-04T02:16:41.803Z,0.00
2018-02-04T02:17:43.807Z,0.00
2018-02-04T02:18:44.314Z,0.00
2018-02-04T02:19:41.301Z,0.00
2018-02-04T02:20:41.798Z,0.00
2018-02-04T02:21:42.310Z,0.00
2018-02-04T02:22:39.979Z,0.00
2018-02-04T02:23:41.820Z,0.00
2018-02-04T02:24:44.293Z,0.00
2018-02-04T02:25:41.304Z,0.00
2018-02-04T02:26:39.867Z,0.00
2018-02-04T02:27:39.864Z,0.00
2018-02-04T02:28:39.860Z,0.00
2018-02-04T02:29:39.844Z,0.00
2018-02-04T02:30:39.837Z,0.00
2018-02-04T02:31:39.836Z,0.00
2018-02-04T02:32:39.824Z,0.00
2018-02-04T02:33:39.813Z,0.00
2018-02-04T02:34:39.814Z,0.00
2018-02-04T02:35:39.800Z,0.00
2018-02-04T02:36:39.792Z,0.00
2018-02-04T02:37:41.312Z,0.00
2018-02-04T02:38:40.818Z,0.00
2018-02-04T02:39:41.800Z,0.00
2018-02-04T02:40:41.808Z,0.00
2018-02-04T02:41:41.312Z,0.00
2018-02-04T02:42:41.797Z,0.00
2018-02-04T02:43:41.319Z,0.00
2018-02-04T02:44:40.311Z,0.00
2018-02-04T02:45:40.809Z,0.00
2018-02-04T02:46:41.303Z,0.00
2018-02-04T02:47:40.803Z,0.00
2018-02-04T02:48:42.382Z,0.00
2018-02-04T02:49:40.815Z,0.00
2018-02-04T02:50:40.308Z,0.00
2018-02-04T02:51:40.803Z,0.00
2018-02-04T02:52:40.805Z,0.00
2018-02-04T02:53:41.307Z,0.00
2018-02-04T02:54:40.319Z,0.00
2018-02-04T02:55:41.809Z,0.00
2018-02-04T02:56:39.663Z,0.00
2018-02-04T02:57:39.639Z,0.00
2018-02-04T02:58:39.731Z,0.00
2018-02-04T02:59:40.294Z,0.00
2018-02-04T03:00:39.694Z,0.00
2018-02-04T03:01:39.627Z,0.00
2018-02-04T03:02:39.764Z,0.00
2018-02-04T03:03:39.700Z,0.00
2018-02-04T03:04:40.313Z,0.00
2018-02-04T03:05:40.792Z,0.00
2018-02-04T03:06:39.614Z,0.00
2018-02-04T03:07:40.313Z,0.00
2018-02-04T03:08:40.279Z,0.00
2018-02-04T03:09:39.685Z,0.00
2018-02-04T03:10:40.359Z,0.00
2018-02-04T03:11:39.630Z,0.00
2018-02-04T03:12:39.712Z,0.00
2018-02-04T03:13:39.757Z,0.00
2018-02-04T03:14:39.518Z,0.00
2018-02-04T03:15:39.586Z,0.00
2018-02-04T03:16:39.638Z,0.00
2018-02-04T03:17:40.285Z,0.00
2018-02-04T03:18:40.372Z,0.00
2018-02-04T03:19:39.702Z,0.00
2018-02-04T03:20:39.566Z,0.00
2018-02-04T03:21:39.705Z,0.00
2018-02-04T03:22:39.591Z,0.00
2018-02-04T03:23:39.529Z,0.00
2018-02-04T03:24:39.436Z,0.00
2018-02-04T03:25:39.421Z,0.00
2018-02-04T03:26:39.419Z,0.00
2018-02-04T03:27:39.409Z,0.00
2018-02-04T03:28:39.399Z,0.00
2018-02-04T03:29:39.390Z,0.00
2018-02-04T03:30:39.384Z,0.00
2018-02-04T03:31:39.376Z,0.00
2018-02-04T03:32:39.368Z,0.00
2018-02-04T03:33:39.369Z,0.00
2018-02-04T03:34:39.352Z,0.00
2018-02-04T03:35:39.349Z,0.00
2018-02-04T03:36:39.337Z,0.00
2018-02-04T03:37:39.331Z,0.00
2018-02-04T03:38:39.324Z,0.00
2018-02-04T03:39:39.314Z,0.00
2018-02-04T03:40:39.306Z,0.00
2018-02-04T03:41:39.300Z,0.00
2018-02-04T03:42:39.292Z,0.00
2018-02-04T03:43:39.285Z,0.00
2018-02-04T03:44:39.277Z,0.00
2018-02-04T03:45:39.268Z,0.00
2018-02-04T03:46:39.261Z,0.00
2018-02-04T03:47:39.254Z,0.00
2018-02-04T03:48:39.248Z,0.00
2018-02-04T03:49:39.239Z,0.00
2018-02-04T03:50:39.234Z,0.00
2018-02-04T03:51:39.225Z,0.00
2018-02-04T03:52:39.218Z,0.00
2018-02-04T03:53:39.209Z,0.00
2018-02-04T03:54:39.202Z,0.00
2018-02-04T03:55:39.195Z,0.00
2018-02-04T03:56:39.190Z,0.00
2018-02-04T03:57:39.184Z,0.00
2018-02-04T03:58:39.173Z,0.00
2018-02-04T03:59:39.165Z,0.00
2018-02-04T04:00:39.163Z,0.00
2018-02-04T04:01:39.149Z,0.00
2018-02-04T04:02:39.144Z,0.00
2018-02-04T04:03:39.137Z,0.00
2018-02-04T04:04:39.130Z,0.00
2018-02-04T04:05:39.120Z,0.00
2018-02-04T04:06:39.114Z,0.00
2018-02-04T04:07:39.105Z,0.00
2018-02-04T04:08:39.101Z,0.00
2018-02-04T04:09:39.092Z,0.00
2018-02-04T04:10:39.083Z,0.00
2018-02-04T04:11:39.079Z,0.00
2018-02-04T04:12:39.068Z,0.00
2018-02-04T04:13:39.061Z,0.00
2018-02-04T04:14:39.053Z,0.00
2018-02-04T04:15:39.047Z,0.00
2018-02-04T04:16:39.042Z,0.00
2018-02-04T04:17:39.031Z,0.00
2018-02-04T04:18:39.023Z,0.00
2018-02-04T04:19:39.016Z,0.00
2018-02-04T04:20:39.011Z,0.00
2018-02-04T04:21:39.006Z,0.00
2018-02-04T04:22:38.996Z,0.00
2018-02-04T04:23:38.995Z,0.00
2018-02-04T04:24:38.979Z,0.00
2018-02-04T04:25:38.977Z,0.00
2018-02-04T04:26:38.963Z,0.00
2018-02-04T04:27:38.972Z,0.00
2018-02-04T04:28:38.949Z,0.00
2018-02-04T04:29:38.941Z,0.00
2018-02-04T04:30:38.934Z,0.00
2018-02-04T04:31:38.937Z,0.00
2018-02-04T04:32:38.918Z,0.00
2018-02-04T04:33:38.910Z,0.00
2018-02-04T04:34:38.905Z,0.00
2018-02-04T04:35:38.893Z,0.00
2018-02-04T04:36:38.888Z,0.00
2018-02-04T04:37:38.877Z,0.00
2018-02-04T04:38:38.873Z,0.00
2018-02-04T04:39:38.862Z,0.00
2018-02-04T04:40:38.856Z,0.00
2018-02-04T04:41:38.847Z,0.00
2018-02-04T04:42:38.858Z,0.00
2018-02-04T04:43:38.864Z,0.00
2018-02-04T04:44:39.313Z,0.00
2018-02-04T04:45:38.990Z,0.00
2018-02-04T04:46:39.808Z,0.00
2018-02-04T04:47:40.299Z,0.00
2018-02-04T04:48:39.824Z,0.00
2018-02-04T04:49:40.076Z,0.00
2018-02-04T04:50:38.805Z,0.00
2018-02-04T04:51:38.818Z,0.00
2018-02-04T04:52:38.764Z,0.00
2018-02-04T04:53:38.815Z,0.00
2018-02-04T04:54:38.811Z,0.00
2018-02-04T04:55:38.776Z,0.00
2018-02-04T04:56:38.744Z,0.00
2018-02-04T04:57:38.732Z,0.00
2018-02-04T04:58:38.741Z,0.00
2018-02-04T04:59:38.712Z,0.00
2018-02-04T05:00:38.730Z,0.00
2018-02-04T05:01:38.731Z,0.00
2018-02-04T05:02:38.696Z,0.00
2018-02-04T05:03:38.723Z,0.00
2018-02-04T05:04:38.731Z,0.00
2018-02-04T05:05:38.656Z,0.00
2018-02-04T05:06:38.724Z,0.00
2018-02-04T05:07:38.637Z,0.00
2018-02-04T05:08:38.627Z,0.00
2018-02-04T05:09:38.616Z,0.00
2018-02-04T05:10:38.618Z,0.00
2018-02-04T05:11:38.601Z,0.00
2018-02-04T05:12:38.606Z,0.00
2018-02-04T05:13:38.585Z,0.00
2018-02-04T05:14:38.571Z,0.00
2018-02-04T05:15:38.563Z,0.00
2018-02-04T05:16:38.551Z,0.00
2018-02-04T05:17:38.552Z,0.00
2018-02-04T05:18:38.537Z,0.00
2018-02-04T05:19:38.532Z,0.00
2018-02-04T05:20:38.520Z,0.00
2018-02-04T05:21:38.508Z,0.00
2018-02-04T05:22:38.514Z,0.00
2018-02-04T05:23:38.520Z,0.00
2018-02-04T05:24:38.486Z,0.00
2018-02-04T05:25:38.484Z,0.00
2018-02-04T05:26:38.463Z,0.00
2018-02-04T05:27:38.457Z,0.00
2018-02-04T05:28:38.452Z,0.00
2018-02-04T05:29:38.436Z,0.00
2018-02-04T05:30:38.433Z,0.00
2018-02-04T05:31:38.419Z,0.00
2018-02-04T05:32:38.410Z,0.00
2018-02-04T05:33:38.403Z,0.00
2018-02-04T05:34:38.400Z,0.00
2018-02-04T05:35:38.383Z,0.00
2018-02-04T05:36:38.376Z,0.00
2018-02-04T05:37:38.364Z,0.00
2018-02-04T05:38:38.357Z,0.00
2018-02-04T05:39:38.348Z,0.00
2018-02-04T05:40:38.341Z,0.00
2018-02-04T05:41:38.330Z,0.00
2018-02-04T05:42:38.324Z,0.00
2018-02-04T05:43:38.313Z,0.00
2018-02-04T05:44:38.307Z,0.00
2018-02-04T05:45:38.304Z,0.00
2018-02-04T05:46:38.288Z,0.00
2018-02-04T05:47:38.280Z,0.00
2018-02-04T05:48:38.273Z,0.00
2018-02-04T05:49:38.260Z,0.00
2018-02-04T05:50:38.250Z,0.00
2018-02-04T05:51:38.241Z,0.00
2018-02-04T05:52:38.233Z,0.00
2018-02-04T05:53:38.224Z,0.00
2018-02-04T05:54:38.214Z,0.00
2018-02-04T05:55:38.205Z,0.00
2018-02-04T05:56:38.197Z,0.00
2018-02-04T05:57:38.187Z,0.00
2018-02-04T05:58:38.178Z,0.00
2018-02-04T05:59:38.173Z,0.00
2018-02-04T06:00:38.167Z,0.00
2018-02-04T06:01:38.150Z,0.00
2018-02-04T06:02:38.142Z,0.00
2018-02-04T06:03:38.133Z,0.00
2018-02-04T06:04:38.126Z,0.00
2018-02-04T06:05:38.115Z,0.00
2018-02-04T06:06:38.105Z,0.00
2018-02-04T06:07:38.095Z,0.00
2018-02-04T06:08:38.087Z,0.00
2018-02-04T06:09:38.077Z,0.00
2018-02-04T06:10:38.066Z,0.00
2018-02-04T06:11:38.063Z,0.00
2018-02-04T06:12:38.049Z,0.00
2018-02-04T06:13:38.038Z,0.00
2018-02-04T06:14:38.029Z,0.00
2018-02-04T06:15:38.020Z,0.00
2018-02-04T06:16:38.012Z,0.00
2018-02-04T06:17:38.002Z,0.00
2018-02-04T06:18:37.992Z,0.00
2018-02-04T06:19:37.993Z,0.00
2018-02-04T06:20:37.971Z,0.00
2018-02-04T06:21:37.961Z,0.00
2018-02-04T06:22:37.958Z,0.00
2018-02-04T06:23:37.945Z,0.00
2018-02-04T06:24:37.934Z,0.00
2018-02-04T06:25:37.923Z,0.00
2018-02-04T06:26:37.918Z,0.00
2018-02-04T06:27:37.903Z,0.00
2018-02-04T06:28:37.895Z,0.00
2018-02-04T06:29:37.889Z,0.00
2018-02-04T06:30:37.874Z,0.00
2018-02-04T06:31:37.865Z,0.00
2018-02-04T06:32:37.855Z,0.00
2018-02-04T06:33:37.844Z,0.00
2018-02-04T06:34:37.835Z,0.00
2018-02-04T06:35:37.828Z,0.00
2018-02-04T06:36:37.816Z,0.00
2018-02-04T06:37:37.805Z,0.00
2018-02-04T06:38:37.797Z,0.00
2018-02-04T06:39:37.786Z,0.00
2018-02-04T06:40:37.779Z,0.00
2018-02-04T06:41:37.769Z,0.00
2018-02-04T06:42:37.757Z,0.00
2018-02-04T06:43:37.755Z,0.00
2018-02-04T06:44:37.739Z,0.00
2018-02-04T06:45:37.727Z,0.00
2018-02-04T06:46:37.718Z,0.00
2018-02-04T06:47:37.711Z,0.00
2018-02-04T06:48:37.700Z,0.00
2018-02-04T06:49:37.689Z,0.00
2018-02-04T06:50:37.678Z,0.00
2018-02-04T06:51:37.670Z,0.00
2018-02-04T06:52:37.660Z,0.00
2018-02-04T06:53:37.687Z,0.00
2018-02-04T06:54:37.641Z,0.00
2018-02-04T06:55:37.632Z,0.00
2018-02-04T06:56:37.622Z,0.00
2018-02-04T06:57:37.610Z,0.00
2018-02-04T06:58:37.601Z,0.00
2018-02-04T06:59:37.591Z,0.00
2018-02-04T07:00:37.637Z,0.00
2018-02-04T07:01:37.571Z,0.00
2018-02-04T07:02:37.561Z,0.00
2018-02-04T07:03:37.550Z,0.00
2018-02-04T07:04:37.542Z,0.00
2018-02-04T07:05:37.531Z,0.00
2018-02-04T07:06:37.521Z,0.00
2018-02-04T07:07:37.511Z,0.00
2018-02-04T07:08:37.501Z,5.63
2018-02-04T07:09:37.524Z,5.63
2018-02-04T07:10:37.483Z,5.63
2018-02-04T07:11:37.471Z,5.63
2018-02-04T07:12:37.461Z,5.63
2018-02-04T07:13:37.450Z,5.63
2018-02-04T07:14:37.444Z,5.63
2018-02-04T07:15:37.430Z,5.63
2018-02-04T07:16:37.421Z,5.63
2018-02-04T07:17:37.411Z,5.63
2018-02-04T07:18:37.402Z,5.63
2018-02-04T07:19:37.401Z,5.63
2018-02-04T07:20:37.383Z,5.63
2018-02-04T07:21:37.373Z,5.63
2018-02-04T07:22:37.369Z,5.63
2018-02-04T07:23:37.355Z,5.63
2018-02-04T07:24:37.345Z,5.63
2018-02-04T07:25:37.333Z,5.63
2018-02-04T07:26:37.324Z,5.63
2018-02-04T07:27:37.311Z,5.63
2018-02-04T07:28:37.306Z,5.63
2018-02-04T07:29:37.291Z,5.63
2018-02-04T07:30:37.280Z,11.25
2018-02-04T07:31:37.314Z,11.25
2018-02-04T07:32:37.259Z,11.25
2018-02-04T07:33:37.249Z,11.25
2018-02-04T07:34:37.238Z,11.25
2018-02-04T07:35:37.232Z,11.25
2018-02-04T07:36:37.221Z,11.25
2018-02-04T07:37:37.208Z,11.25
2018-02-04T07:38:37.198Z,11.25
2018-02-04T07:39:37.189Z,16.88
2018-02-04T07:40:37.180Z,16.88
2018-02-04T07:41:37.168Z,16.88
2018-02-04T07:42:37.165Z,16.88
2018-02-04T07:43:37.149Z,16.88
2018-02-04T07:44:37.137Z,16.88
2018-02-04T07:45:37.129Z,22.50
2018-02-04T07:46:37.117Z,22.50
2018-02-04T07:47:37.107Z,22.50
2018-02-04T07:48:37.098Z,22.50
2018-02-04T07:49:37.088Z,22.50
2018-02-04T07:50:37.077Z,22.50
2018-02-04T07:51:37.070Z,28.13
2018-02-04T07:52:37.057Z,28.13
2018-02-04T07:53:37.048Z,28.13
2018-02-04T07:54:37.042Z,28.13
2018-02-04T07:55:37.027Z,28.13
2018-02-04T07:56:37.018Z,28.13
2018-02-04T07:57:37.007Z,28.13
2018-02-04T07:58:36.999Z,28.13
2018-02-04T07:59:36.990Z,28.13
2018-02-04T08:00:36.978Z,28.13
2018-02-04T08:01:36.977Z,28.13
2018-02-04T08:02:36.957Z,28.13
2018-02-04T08:03:36.948Z,28.13
2018-02-04T08:04:36.936Z,28.13
2018-02-04T08:05:36.925Z,28.13
2018-02-04T08:06:36.915Z,28.13
2018-02-04T08:07:36.906Z,28.13
2018-02-04T08:08:36.898Z,28.13
2018-02-04T08:09:36.885Z,28.13
2018-02-04T08:10:36.877Z,28.13
2018-02-04T08:11:36.864Z,28.13
2018-02-04T08:12:36.856Z,28.13
2018-02-04T08:13:36.844Z,22.50
2018-02-04T08:14:36.834Z,28.13
2018-02-04T08:15:36.825Z,22.50
2018-02-04T08:16:36.813Z,28.13
2018-02-04T08:17:36.809Z,28.13
2018-02-04T08:18:36.801Z,28.13
2018-02-04T08:19:36.783Z,28.13
2018-02-04T08:20:36.775Z,28.13
2018-02-04T08:21:36.763Z,28.13
2018-02-04T08:22:36.753Z,28.13
2018-02-04T08:23:36.743Z,28.13
2018-02-04T08:24:36.746Z,28.13
2018-02-04T08:25:36.722Z,28.13
2018-02-04T08:26:36.714Z,28.13
2018-02-04T08:27:36.704Z,28.13
2018-02-04T08:28:36.699Z,28.13
2018-02-04T08:29:36.693Z,28.13
2018-02-04T08:30:36.671Z,28.13
2018-02-04T08:31:36.661Z,33.75
2018-02-04T08:32:36.653Z,33.75
2018-02-04T08:33:36.638Z,33.75
2018-02-04T08:34:36.628Z,28.13
2018-02-04T08:35:36.679Z,33.75
2018-02-04T08:36:36.608Z,33.75
2018-02-04T08:37:36.601Z,33.75
2018-02-04T08:38:36.596Z,39.38
2018-02-04T08:39:36.576Z,39.38
2018-02-04T08:40:36.565Z,39.38
2018-02-04T08:41:36.554Z,39.38
2018-02-04T08:42:36.545Z,39.38
2018-02-04T08:43:36.534Z,33.75
2018-02-04T08:44:36.544Z,33.75
2018-02-04T08:45:36.513Z,33.75
2018-02-04T08:46:36.505Z,33.75
2018-02-04T08:47:36.492Z,33.75
2018-02-04T08:48:36.481Z,28.13
2018-02-04T08:49:36.472Z,33.75
2018-02-04T08:50:36.460Z,33.75
2018-02-04T08:51:36.457Z,39.38
2018-02-04T08:52:36.439Z,39.38
2018-02-04T08:53:36.428Z,39.38
2018-02-04T08:54:36.422Z,45.00
2018-02-04T08:55:36.416Z,45.00
2018-02-04T08:56:36.396Z,50.63
2018-02-04T08:57:36.397Z,50.63
2018-02-04T08:58:36.377Z,50.63
2018-02-04T08:59:36.365Z,45.00
2018-02-04T09:00:36.359Z,45.00
2018-02-04T09:01:36.344Z,45.00
2018-02-04T09:02:36.334Z,50.63
2018-02-04T09:03:36.325Z,45.00
2018-02-04T09:04:36.313Z,45.00
2018-02-04T09:05:36.303Z,45.00
2018-02-04T09:06:36.294Z,39.38
2018-02-04T09:07:36.282Z,39.38
2018-02-04T09:08:36.272Z,39.38
2018-02-04T09:09:36.260Z,39.38
2018-02-04T09:10:36.252Z,45.00
2018-02-04T09:11:36.240Z,45.00
2018-02-04T09:12:36.236Z,45.00
2018-02-04T09:13:36.221Z,45.00
2018-02-04T09:14:36.214Z,50.63
2018-02-04T09:15:36.199Z,50.63
2018-02-04T09:16:36.191Z,50.63
2018-02-04T09:17:36.179Z,50.63
2018-02-04T09:18:36.168Z,45.00
2018-02-04T09:19:36.158Z,50.63
2018-02-04T09:20:36.148Z,45.00
2018-02-04T09:21:36.136Z,45.00
2018-02-04T09:22:36.126Z,45.00
2018-02-04T09:23:36.115Z,45.00
2018-02-04T09:24:36.105Z,45.00
2018-02-04T09:25:36.098Z,45.00
2018-02-04T09:26:36.088Z,45.00
2018-02-04T09:27:36.074Z,45.00
2018-02-04T09:28:36.066Z,45.00
2018-02-04T09:29:36.054Z,45.00
2018-02-04T09:30:36.045Z,45.00
2018-02-04T09:31:36.033Z,50.63
2018-02-04T09:32:36.022Z,45.00
2018-02-04T09:33:36.011Z,50.63
2018-02-04T09:34:36.009Z,50.63
2018-02-04T09:35:35.995Z,50.63
2018-02-04T09:36:35.982Z,50.63
2018-02-04T09:37:35.970Z,50.63
2018-02-04T09:38:35.960Z,50.63
2018-02-04T09:39:35.949Z,50.63
2018-02-04T09:40:35.939Z,45.00
2018-02-04T09:41:35.928Z,45.00
2018-02-04T09:42:35.919Z,45.00
2018-02-04T09:43:35.907Z,45.00
2018-02-04T09:44:35.896Z,45.00
2018-02-04T09:45:35.893Z,45.00
2018-02-04T09:46:35.879Z,45.00
2018-02-04T09:47:35.865Z,45.00
2018-02-04T09:48:35.859Z,45.00
2018-02-04T09:49:35.845Z,39.38
2018-02-04T09:50:35.836Z,39.38
2018-02-04T09:51:35.826Z,39.38
2018-02-04T09:52:35.836Z,39.38
2018-02-04T09:53:35.806Z,39.38
2018-02-04T09:54:35.794Z,39.38
2018-02-04T09:55:35.784Z,39.38
2018-02-04T09:56:35.778Z,39.38
2018-02-04T09:57:35.767Z,39.38
2018-02-04T09:58:35.819Z,39.38
2018-02-04T09:59:35.749Z,39.38
2018-02-04T10:00:35.732Z,45.00
2018-02-04T10:01:35.725Z,39.38
2018-02-04T10:02:35.711Z,45.00
2018-02-04T10:03:35.708Z,39.38
2018-02-04T10:04:35.690Z,39.38
2018-02-04T10:05:35.694Z,45.00
2018-02-04T10:06:35.670Z,45.00
2018-02-04T10:07:35.660Z,39.38
2018-02-04T10:08:35.652Z,45.00
2018-02-04T10:09:35.642Z,50.63
2018-02-04T10:10:35.645Z,50.63
2018-02-04T10:11:35.618Z,45.00
2018-02-04T10:12:35.608Z,45.00
2018-02-04T10:13:35.599Z,45.00
2018-02-04T10:14:35.589Z,50.63
2018-02-04T10:15:35.579Z,50.63
2018-02-04T10:16:35.577Z,50.63
2018-02-04T10:17:35.556Z,50.63
2018-02-04T10:18:35.548Z,50.63
2018-02-04T10:19:35.537Z,45.00
2018-02-04T10:20:35.547Z,45.00
2018-02-04T10:21:35.515Z,39.38
2018-02-04T10:22:35.514Z,33.75
2018-02-04T10:23:35.495Z,33.75
2018-02-04T10:24:35.485Z,33.75
2018-02-04T10:25:35.507Z,28.13
2018-02-04T10:26:35.468Z,28.13
2018-02-04T10:27:36.273Z,28.13
2018-02-04T10:28:35.443Z,28.13
2018-02-04T10:29:35.431Z,28.13
2018-02-04T10:30:35.430Z,28.13
2018-02-04T10:31:35.415Z,28.13
2018-02-04T10:32:35.412Z,28.13
2018-02-04T10:33:35.396Z,28.13
2018-02-04T10:34:35.380Z,28.13
2018-02-04T10:35:35.376Z,28.13
2018-02-04T10:36:35.360Z,28.13
2018-02-04T10:37:35.347Z,28.13
2018-02-04T10:38:35.355Z,33.75
2018-02-04T10:39:35.327Z,33.75
2018-02-04T10:40:35.317Z,33.75
2018-02-04T10:41:35.327Z,33.75
2018-02-04T10:42:35.296Z,33.75
2018-02-04T10:43:35.284Z,28.13
2018-02-04T10:44:35.274Z,28.13
2018-02-04T10:45:35.264Z,33.75
2018-02-04T10:46:35.254Z,39.38
2018-02-04T10:47:35.255Z,33.75
2018-02-04T10:48:35.407Z,33.75
2018-02-04T10:49:35.226Z,28.13
2018-02-04T10:50:35.216Z,28.13
2018-02-04T10:51:35.200Z,28.13
2018-02-04T10:52:35.189Z,28.13
2018-02-04T10:53:35.186Z,28.13
2018-02-04T10:54:35.170Z,33.75
2018-02-04T10:55:35.161Z,28.13
2018-02-04T10:56:35.149Z,28.13
2018-02-04T10:57:35.139Z,28.13
2018-02-04T10:58:35.128Z,28.13
2018-02-04T10:59:35.116Z,28.13
2018-02-04T11:00:35.108Z,28.13
2018-02-04T11:01:35.096Z,33.75
2018-02-04T11:02:35.086Z,28.13
2018-02-04T11:03:35.080Z,33.75
2018-02-04T11:04:35.069Z,33.75
2018-02-04T11:05:35.054Z,33.75
2018-02-04T11:06:35.053Z,33.75
2018-02-04T11:07:35.046Z,33.75
2018-02-04T11:08:35.034Z,33.75
2018-02-04T11:09:35.017Z,33.75
2018-02-04T11:10:35.004Z,33.75
2018-02-04T11:11:35.036Z,33.75
2018-02-04T11:12:34.993Z,33.75
2018-02-04T11:13:34.976Z,33.75
2018-02-04T11:14:34.964Z,33.75
2018-02-04T11:15:34.957Z,33.75
2018-02-04T11:16:34.951Z,33.75
2018-02-04T11:17:34.926Z,28.13
2018-02-04T11:18:34.941Z,28.13
2018-02-04T11:19:34.905Z,33.75
2018-02-04T11:20:34.894Z,33.75
2018-02-04T11:21:34.883Z,33.75
2018-02-04T11:22:34.922Z,33.75
2018-02-04T11:23:34.863Z,33.75
2018-02-04T11:24:34.855Z,33.75
2018-02-04T11:25:34.846Z,33.75
2018-02-04T11:26:34.832Z,39.38
2018-02-04T11:27:34.820Z,33.75
2018-02-04T11:28:34.810Z,33.75
2018-02-04T11:29:34.802Z,39.38
2018-02-04T11:30:34.790Z,45.00
2018-02-04T11:31:34.786Z,45.00
2018-02-04T11:32:34.771Z,50.63
2018-02-04T11:33:34.753Z,56.25
2018-02-04T11:34:34.744Z,50.63
2018-02-04T11:35:34.735Z,50.63
2018-02-04T11:36:34.723Z,50.63
2018-02-04T11:37:34.713Z,50.63
2018-02-04T11:38:34.701Z,56.25
2018-02-04T11:39:34.691Z,50.63
2018-02-04T11:40:34.685Z,50.63
2018-02-04T11:41:34.669Z,45.00
2018-02-04T11:42:34.663Z,45.00
2018-02-04T11:43:34.649Z,45.00
2018-02-04T11:44:34.724Z,45.00
2018-02-04T11:45:34.628Z,45.00
2018-02-04T11:46:34.676Z,45.00
2018-02-04T11:47:34.686Z,45.00
2018-02-04T11:48:34.598Z,45.00
2018-02-04T11:49:34.600Z,45.00
2018-02-04T11:50:34.580Z,45.00
2018-02-04T11:51:34.566Z,45.00
2018-02-04T11:52:34.555Z,50.63
2018-02-04T11:53:34.545Z,50.63
2018-02-04T11:54:34.533Z,56.25
2018-02-04T11:55:34.522Z,50.63
2018-02-04T11:56:34.511Z,50.63
2018-02-04T11:57:34.502Z,50.63
2018-02-04T11:58:34.491Z,50.63
2018-02-04T11:59:34.480Z,50.63
2018-02-04T12:00:34.470Z,50.63
2018-02-04T12:01:34.467Z,56.25
2018-02-04T12:02:34.450Z,61.88
2018-02-04T12:03:34.447Z,67.50
2018-02-04T12:04:34.428Z,67.50
2018-02-04T12:05:34.424Z,73.13
2018-02-04T12:06:34.412Z,73.13
2018-02-04T12:07:34.396Z,78.75
2018-02-04T12:08:34.392Z,78.75
2018-02-04T12:09:34.420Z,78.75
2018-02-04T12:10:34.366Z,78.75
2018-02-04T12:11:34.362Z,78.75
2018-02-04T12:12:34.347Z,84.38
2018-02-04T12:13:34.338Z,78.75
2018-02-04T12:14:34.323Z,78.75
2018-02-04T12:15:34.373Z,78.75
2018-02-04T12:16:34.303Z,73.13
2018-02-04T12:17:34.293Z,78.75
2018-02-04T12:18:34.281Z,73.13
2018-02-04T12:19:34.274Z,73.13
2018-02-04T12:20:34.264Z,67.50
2018-02-04T12:21:34.252Z,67.50
2018-02-04T12:22:34.243Z,67.50
2018-02-04T12:23:34.234Z,61.88
2018-02-04T12:24:34.220Z,61.88
2018-02-04T12:25:34.211Z,56.25
2018-02-04T12:26:34.206Z,56.25
2018-02-04T12:27:34.189Z,56.25
2018-02-04T12:28:34.180Z,56.25
2018-02-04T12:29:34.173Z,56.25
2018-02-04T12:30:34.157Z,56.25
2018-02-04T12:31:34.158Z,56.25
2018-02-04T12:32:34.145Z,56.25
2018-02-04T12:33:34.141Z,56.25
2018-02-04T12:34:34.128Z,56.25
2018-02-04T12:35:34.115Z,56.25
2018-02-04T12:36:34.100Z,56.25
2018-02-04T12:37:34.089Z,50.63
2018-02-04T12:38:34.080Z,50.63
2018-02-04T12:39:34.069Z,50.63
2018-02-04T12:40:34.058Z,50.63
2018-02-04T12:41:34.048Z,50.63
2018-02-04T12:42:34.038Z,45.00
2018-02-04T12:43:34.026Z,45.00
2018-02-04T12:44:34.018Z,45.00
2018-02-04T12:45:34.006Z,45.00
2018-02-04T12:46:34.002Z,39.38
2018-02-04T12:47:33.986Z,39.38
2018-02-04T12:48:33.981Z,33.75
2018-02-04T12:49:33.969Z,39.38
2018-02-04T12:50:33.956Z,39.38
2018-02-04T12:51:33.963Z,39.38
2018-02-04T12:52:33.957Z,39.38
2018-02-04T12:53:33.927Z,39.38
2018-02-04T12:54:33.918Z,45.00
2018-02-04T12:55:33.909Z,45.00
2018-02-04T12:56:33.896Z,45.00
2018-02-04T12:57:33.891Z,45.00
2018-02-04T12:58:33.876Z,39.38
2018-02-04T12:59:33.867Z,45.00
2018-02-04T13:00:33.857Z,39.38
2018-02-04T13:01:33.846Z,39.38
2018-02-04T13:02:33.845Z,39.38
2018-02-04T13:03:33.829Z,39.38
2018-02-04T13:04:33.821Z,33.75
2018-02-04T13:05:33.817Z,33.75
2018-02-04T13:06:33.796Z,33.75
2018-02-04T13:07:33.787Z,39.38